Mid Fortune — ZGCG8 — position and weather

sailwx.info

Track history (hours):
 
Tides and Currents Weather Stations Pressure Air Temp Water Temp Dewpoint Dewpoint Depression Visibility Wind Speed Wind Dir Waves Ship Positions

Mid Fortune

Last reported at 2016-Jul-20 22:33 UTC. Time now 2016-Jul-25 00:21 UTC.
Position S 28°02' E 033°43'.

Length 147 m; draft 6.7 m.

Type: Tanker. MMSI: 319182000.

Date/timePositionNaut miles runAvg speedWind from/ knotsBaromVisibWave heightAir tempDewpointWater temp
2016-Jul-20 22:33S 28°02' E 033°43'1010.2
2016-Jul-20 21:33S 28°10' E 033°36'1110.6
2016-Jul-20 20:33S 28°18' E 033°28'1110.7
2016-Jul-20 19:33S 28°27' E 033°21'1110.8
2016-Jul-20 18:33S 28°35' E 033°12'1110.9
2016-Jul-20 17:33S 28°43' E 033°04'1111.2
2016-Jul-20 16:33S 28°52' E 032°57'1111.3
2016-Jul-20 15:33S 29°01' E 032°49'1111.0
2016-Jul-20 14:33S 29°09' E 032°40'1111.0
2016-Jul-20 13:33S 29°16' E 032°31'1111.3
2016-Jul-20 12:33S 29°21' E 032°19'1111.2
2016-Jul-20 11:33S 29°26' E 032°07'1110.8
2016-Jul-20 10:33S 29°30' E 031°56'1110.8
2016-Jul-20 09:34S 29°35' E 031°45'1211.7
2016-Jul-20 08:33S 29°40' E 031°33'1313.1
2016-Jul-20 07:33S 29°45' E 031°19'1212.5
2016-Jul-20 06:34S 29°50' E 031°06'5 4.8
2016-Jul-20 05:33S 29°53' E 031°02'0 0.0
2016-Jul-20 04:33S 29°53' E 031°02'0 0.0
2016-Jul-20 03:33S 29°53' E 031°02'0 0.0
2016-Jul-20 02:33S 29°53' E 031°02'0 0.0
2016-Jul-20 01:33S 29°53' E 031°02'0 0.0
2016-Jul-20 00:33S 29°53' E 031°02'0 0.0
2016-Jul-19 23:33S 29°53' E 031°02'0 0.0
2016-Jul-19 22:30S 29°53' E 031°02'0 0.0
2016-Jul-19 21:33S 29°53' E 031°02'0 0.0
2016-Jul-19 20:33S 29°53' E 031°02'0 0.0
2016-Jul-19 19:33S 29°53' E 031°02'0 0.0
2016-Jul-19 18:33S 29°53' E 031°02'0 0.0
2016-Jul-19 17:33S 29°53' E 031°02'0 0.0
2016-Jul-19 16:30S 29°53' E 031°02'0 0.0
2016-Jul-19 15:30S 29°53' E 031°02'0 0.0
2016-Jul-19 14:33S 29°53' E 031°02'0 0.0
2016-Jul-19 13:33S 29°53' E 031°02'0 0.0
2016-Jul-19 12:33S 29°53' E 031°02'0 0.0
2016-Jul-19 11:33S 29°53' E 031°02'0 0.0
2016-Jul-19 10:33S 29°53' E 031°02'0 0.0
2016-Jul-19 09:33S 29°53' E 031°02'0 0.0
2016-Jul-19 08:33S 29°53' E 031°02'0 0.0
2016-Jul-19 07:33S 29°53' E 031°02'0 0.0
2016-Jul-19 04:33S 29°53' E 031°02'0 0.0
2016-Jul-19 03:33S 29°53' E 031°02'0 0.0
2016-Jul-19 02:33S 29°53' E 031°02'0 0.0
2016-Jul-19 01:33S 29°53' E 031°02'0 0.0
2016-Jul-19 00:33S 29°53' E 031°02'0 0.0
2016-Jul-18 23:33S 29°53' E 031°02'0 0.0
2016-Jul-18 22:33S 29°53' E 031°02'1 0.7
2016-Jul-18 21:33S 29°53' E 031°03'6 5.6
2016-Jul-18 20:33S 29°49' E 031°07'1 1.3
2016-Jul-18 19:34S 29°48' E 031°08'2 1.7
2016-Jul-18 18:33S 29°47' E 031°10'2 1.6
2016-Jul-18 17:33S 29°47' E 031°11'2 2.5
2016-Jul-18 16:33S 29°44' E 031°11'0 0.4
2016-Jul-18 15:32S 29°44' E 031°11'0 0.0
2016-Jul-18 14:32S 29°44' E 031°11'0 0.0
2016-Jul-18 13:32S 29°44' E 031°11'0 0.0
2016-Jul-18 12:32S 29°44' E 031°11'0 0.0
2016-Jul-18 11:32S 29°44' E 031°11'0 0.0
2016-Jul-18 10:32S 29°44' E 031°11'0 0.0
2016-Jul-18 09:32S 29°44' E 031°11'0 0.0
2016-Jul-18 08:32S 29°44' E 031°11'0 0.0
2016-Jul-18 07:32S 29°44' E 031°11'0 0.0
2016-Jul-18 06:32S 29°44' E 031°11'0 0.0
2016-Jul-18 05:32S 29°44' E 031°11'0 0.0
2016-Jul-18 04:32S 29°44' E 031°11'1 0.5
2016-Jul-18 03:34S 29°44' E 031°11'6 6.4
2016-Jul-18 02:33S 29°51' E 031°11'1312.8
2016-Jul-18 01:33S 30°03' E 031°14'1212.1
2016-Jul-18 00:33S 30°15' E 031°15'1311.1
2016-Jul-17 23:21S 30°28' E 031°10'  
2016-Jul-15 03:22S 34°16' E 018°08'1211.6
2016-Jul-15 02:21S 34°04' E 018°11'911.9
2016-Jul-15 01:33S 33°56' E 018°16'9 9.0
2016-Jul-15 00:33S 33°53' E 018°26'2 2.3
2016-Jul-14 23:31S 33°55' E 018°27'0 0.0
2016-Jul-14 22:31S 33°55' E 018°27'0 0.0
2016-Jul-14 21:31S 33°55' E 018°27'0 0.0
2016-Jul-14 20:31S 33°55' E 018°27'0 0.0
2016-Jul-14 19:34S 33°55' E 018°27'0 0.0
2016-Jul-14 18:31S 33°55' E 018°27'0 0.0
2016-Jul-14 17:31S 33°55' E 018°27'0 0.0
2016-Jul-14 16:34S 33°55' E 018°27'0 0.0
2016-Jul-14 15:31S 33°55' E 018°27'0 0.0
2016-Jul-14 14:31S 33°55' E 018°27'0 0.0
2016-Jul-14 13:31S 33°55' E 018°27'0 0.0
2016-Jul-14 12:28S 33°55' E 018°27'0 0.0
2016-Jul-14 11:31S 33°55' E 018°27'0 0.0
2016-Jul-14 10:31S 33°55' E 018°27'0 0.0
2016-Jul-14 09:31S 33°55' E 018°27'0 0.0
2016-Jul-14 08:31S 33°55' E 018°27'0 0.0
2016-Jul-14 07:31S 33°55' E 018°27'0 0.0
2016-Jul-14 06:31S 33°55' E 018°27'0 0.0
2016-Jul-14 05:31S 33°55' E 018°27'0 0.0
2016-Jul-14 04:31S 33°55' E 018°27'0 0.0
2016-Jul-14 03:31S 33°55' E 018°27'0 0.0
2016-Jul-14 02:28S 33°55' E 018°27'0 0.0
2016-Jul-14 01:31S 33°55' E 018°27'0 0.0
2016-Jul-14 00:34S 33°55' E 018°27'0 0.0
2016-Jul-13 23:31S 33°55' E 018°27'0 0.0
2016-Jul-13 22:31S 33°55' E 018°27'0 0.0
2016-Jul-13 21:31S 33°55' E 018°27'0 0.0
2016-Jul-13 20:31S 33°55' E 018°27'0 0.0
2016-Jul-13 19:34S 33°55' E 018°27'0 0.0
2016-Jul-13 18:31S 33°55' E 018°27'0 0.0
2016-Jul-13 17:31S 33°55' E 018°27'0 0.0
2016-Jul-13 16:31S 33°55' E 018°27'0 0.0
2016-Jul-13 15:31S 33°55' E 018°27'0 0.0
2016-Jul-13 14:31S 33°55' E 018°27'0 0.0
2016-Jul-13 13:34S 33°55' E 018°27'0 0.0
2016-Jul-13 12:31S 33°55' E 018°27'0 0.0
2016-Jul-13 11:31S 33°55' E 018°27'0 0.0
2016-Jul-13 10:31S 33°55' E 018°27'0 0.0
2016-Jul-13 09:31S 33°55' E 018°27'0 0.0
2016-Jul-13 08:31S 33°55' E 018°27'0 0.0
2016-Jul-13 07:31S 33°55' E 018°27'0 0.0
2016-Jul-13 06:31S 33°55' E 018°27'0 0.0
2016-Jul-13 05:31S 33°55' E 018°27'0 0.0
2016-Jul-13 04:31S 33°55' E 018°27'0 0.0
2016-Jul-13 03:31S 33°55' E 018°27'0 0.0
2016-Jul-13 02:34S 33°55' E 018°27'0 0.0
2016-Jul-13 01:31S 33°55' E 018°27'0 0.0
2016-Jul-13 00:31S 33°55' E 018°27'0 0.0
2016-Jul-12 23:31S 33°55' E 018°27'0 0.0
2016-Jul-12 22:31S 33°55' E 018°27'0 0.0
2016-Jul-12 21:31S 33°55' E 018°27'0 0.0
2016-Jul-12 20:31S 33°55' E 018°27'0 0.0
2016-Jul-12 19:31S 33°55' E 018°27'0 0.0
2016-Jul-12 18:31S 33°55' E 018°27'0 0.0
2016-Jul-12 17:34S 33°55' E 018°27'0 0.0
2016-Jul-12 16:31S 33°55' E 018°27'3 3.0
2016-Jul-12 15:34S 33°52' E 018°25'9 8.9
2016-Jul-12 14:32S 33°59' E 018°17'  
Track history (hours):
 
Tides and Currents Weather Stations Pressure Air Temp Water Temp Dewpoint Dewpoint Depression Visibility Wind Speed Wind Dir Waves Ship Positions

Mid Fortune

Last reported at 2016-Jul-20 22:33 UTC. Time now 2016-Jul-25 00:21 UTC.
Position S 28°02' E 033°43'.

Length 147 m; draft 6.7 m.

Type: Tanker. MMSI: 319182000.

Date/timePositionNaut miles runAvg speedWind from/ knotsBaromVisibWave heightAir tempDewpointWater temp
2016-Jul-20 22:33S 28°02' E 033°43'1010.2
2016-Jul-20 21:33S 28°10' E 033°36'1110.6
2016-Jul-20 20:33S 28°18' E 033°28'1110.7
2016-Jul-20 19:33S 28°27' E 033°21'1110.8
2016-Jul-20 18:33S 28°35' E 033°12'1110.9
2016-Jul-20 17:33S 28°43' E 033°04'1111.2
2016-Jul-20 16:33S 28°52' E 032°57'1111.3
2016-Jul-20 15:33S 29°01' E 032°49'1111.0
2016-Jul-20 14:33S 29°09' E 032°40'1111.0
2016-Jul-20 13:33S 29°16' E 032°31'1111.3
2016-Jul-20 12:33S 29°21' E 032°19'1111.2
2016-Jul-20 11:33S 29°26' E 032°07'1110.8
2016-Jul-20 10:33S 29°30' E 031°56'1110.8
2016-Jul-20 09:34S 29°35' E 031°45'1211.7
2016-Jul-20 08:33S 29°40' E 031°33'1313.1
2016-Jul-20 07:33S 29°45' E 031°19'1212.5
2016-Jul-20 06:34S 29°50' E 031°06'5 4.8
2016-Jul-20 05:33S 29°53' E 031°02'0 0.0
2016-Jul-20 04:33S 29°53' E 031°02'0 0.0
2016-Jul-20 03:33S 29°53' E 031°02'0 0.0
2016-Jul-20 02:33S 29°53' E 031°02'0 0.0
2016-Jul-20 01:33S 29°53' E 031°02'0 0.0
2016-Jul-20 00:33S 29°53' E 031°02'0 0.0
2016-Jul-19 23:33S 29°53' E 031°02'0 0.0
2016-Jul-19 22:30S 29°53' E 031°02'0 0.0
2016-Jul-19 21:33S 29°53' E 031°02'0 0.0
2016-Jul-19 20:33S 29°53' E 031°02'0 0.0
2016-Jul-19 19:33S 29°53' E 031°02'0 0.0
2016-Jul-19 18:33S 29°53' E 031°02'0 0.0
2016-Jul-19 17:33S 29°53' E 031°02'0 0.0
2016-Jul-19 16:30S 29°53' E 031°02'0 0.0
2016-Jul-19 15:30S 29°53' E 031°02'0 0.0
2016-Jul-19 14:33S 29°53' E 031°02'0 0.0
2016-Jul-19 13:33S 29°53' E 031°02'0 0.0
2016-Jul-19 12:33S 29°53' E 031°02'0 0.0
2016-Jul-19 11:33S 29°53' E 031°02'0 0.0
2016-Jul-19 10:33S 29°53' E 031°02'0 0.0
2016-Jul-19 09:33S 29°53' E 031°02'0 0.0
2016-Jul-19 08:33S 29°53' E 031°02'0 0.0
2016-Jul-19 07:33S 29°53' E 031°02'0 0.0
2016-Jul-19 04:33S 29°53' E 031°02'0 0.0
2016-Jul-19 03:33S 29°53' E 031°02'0 0.0
2016-Jul-19 02:33S 29°53' E 031°02'0 0.0
2016-Jul-19 01:33S 29°53' E 031°02'0 0.0
2016-Jul-19 00:33S 29°53' E 031°02'0 0.0
2016-Jul-18 23:33S 29°53' E 031°02'0 0.0
2016-Jul-18 22:33S 29°53' E 031°02'1 0.7
2016-Jul-18 21:33S 29°53' E 031°03'6 5.6
2016-Jul-18 20:33S 29°49' E 031°07'1 1.3
2016-Jul-18 19:34S 29°48' E 031°08'2 1.7
2016-Jul-18 18:33S 29°47' E 031°10'2 1.6
2016-Jul-18 17:33S 29°47' E 031°11'2 2.5
2016-Jul-18 16:33S 29°44' E 031°11'0 0.4
2016-Jul-18 15:32S 29°44' E 031°11'0 0.0
2016-Jul-18 14:32S 29°44' E 031°11'0 0.0
2016-Jul-18 13:32S 29°44' E 031°11'0 0.0
2016-Jul-18 12:32S 29°44' E 031°11'0 0.0
2016-Jul-18 11:32S 29°44' E 031°11'0 0.0
2016-Jul-18 10:32S 29°44' E 031°11'0 0.0
2016-Jul-18 09:32S 29°44' E 031°11'0 0.0
2016-Jul-18 08:32S 29°44' E 031°11'0 0.0
2016-Jul-18 07:32S 29°44' E 031°11'0 0.0
2016-Jul-18 06:32S 29°44' E 031°11'0 0.0
2016-Jul-18 05:32S 29°44' E 031°11'0 0.0
2016-Jul-18 04:32S 29°44' E 031°11'1 0.5
2016-Jul-18 03:34S 29°44' E 031°11'6 6.4
2016-Jul-18 02:33S 29°51' E 031°11'1312.8
2016-Jul-18 01:33S 30°03' E 031°14'1212.1
2016-Jul-18 00:33S 30°15' E 031°15'1311.1
2016-Jul-17 23:21S 30°28' E 031°10'  
2016-Jul-15 03:22S 34°16' E 018°08'1211.6
2016-Jul-15 02:21S 34°04' E 018°11'911.9
2016-Jul-15 01:33S 33°56' E 018°16'9 9.0
2016-Jul-15 00:33S 33°53' E 018°26'2 2.3
2016-Jul-14 23:31S 33°55' E 018°27'0 0.0
2016-Jul-14 22:31S 33°55' E 018°27'0 0.0
2016-Jul-14 21:31S 33°55' E 018°27'0 0.0
2016-Jul-14 20:31S 33°55' E 018°27'0 0.0
2016-Jul-14 19:34S 33°55' E 018°27'0 0.0
2016-Jul-14 18:31S 33°55' E 018°27'0 0.0
2016-Jul-14 17:31S 33°55' E 018°27'0 0.0
2016-Jul-14 16:34S 33°55' E 018°27'0 0.0
2016-Jul-14 15:31S 33°55' E 018°27'0 0.0
2016-Jul-14 14:31S 33°55' E 018°27'0 0.0
2016-Jul-14 13:31S 33°55' E 018°27'0 0.0
2016-Jul-14 12:28S 33°55' E 018°27'0 0.0
2016-Jul-14 11:31S 33°55' E 018°27'0 0.0
2016-Jul-14 10:31S 33°55' E 018°27'0 0.0
2016-Jul-14 09:31S 33°55' E 018°27'0 0.0
2016-Jul-14 08:31S 33°55' E 018°27'0 0.0
2016-Jul-14 07:31S 33°55' E 018°27'0 0.0
2016-Jul-14 06:31S 33°55' E 018°27'0 0.0
2016-Jul-14 05:31S 33°55' E 018°27'0 0.0
2016-Jul-14 04:31S 33°55' E 018°27'0 0.0
2016-Jul-14 03:31S 33°55' E 018°27'0 0.0
2016-Jul-14 02:28S 33°55' E 018°27'0 0.0
2016-Jul-14 01:31S 33°55' E 018°27'0 0.0
2016-Jul-14 00:34S 33°55' E 018°27'0 0.0
2016-Jul-13 23:31S 33°55' E 018°27'0 0.0
2016-Jul-13 22:31S 33°55' E 018°27'0 0.0
2016-Jul-13 21:31S 33°55' E 018°27'0 0.0
2016-Jul-13 20:31S 33°55' E 018°27'0 0.0
2016-Jul-13 19:34S 33°55' E 018°27'0 0.0
2016-Jul-13 18:31S 33°55' E 018°27'0 0.0
2016-Jul-13 17:31S 33°55' E 018°27'0 0.0
2016-Jul-13 16:31S 33°55' E 018°27'0 0.0
2016-Jul-13 15:31S 33°55' E 018°27'0 0.0
2016-Jul-13 14:31S 33°55' E 018°27'0 0.0
2016-Jul-13 13:34S 33°55' E 018°27'0 0.0
2016-Jul-13 12:31S 33°55' E 018°27'0 0.0
2016-Jul-13 11:31S 33°55' E 018°27'0 0.0
2016-Jul-13 10:31S 33°55' E 018°27'0 0.0
2016-Jul-13 09:31S 33°55' E 018°27'0 0.0
2016-Jul-13 08:31S 33°55' E 018°27'0 0.0
2016-Jul-13 07:31S 33°55' E 018°27'0 0.0
2016-Jul-13 06:31S 33°55' E 018°27'0 0.0
2016-Jul-13 05:31S 33°55' E 018°27'0 0.0
2016-Jul-13 04:31S 33°55' E 018°27'0 0.0
2016-Jul-13 03:31S 33°55' E 018°27'0 0.0
2016-Jul-13 02:34S 33°55' E 018°27'0 0.0
2016-Jul-13 01:31S 33°55' E 018°27'0 0.0
2016-Jul-13 00:31S 33°55' E 018°27'0 0.0
2016-Jul-12 23:31S 33°55' E 018°27'0 0.0
2016-Jul-12 22:31S 33°55' E 018°27'0 0.0
2016-Jul-12 21:31S 33°55' E 018°27'0 0.0
2016-Jul-12 20:31S 33°55' E 018°27'0 0.0
2016-Jul-12 19:31S 33°55' E 018°27'0 0.0
2016-Jul-12 18:31S 33°55' E 018°27'0 0.0
2016-Jul-12 17:34S 33°55' E 018°27'0 0.0
2016-Jul-12 16:31S 33°55' E 018°27'3 3.0
2016-Jul-12 15:34S 33°52' E 018°25'9 8.9
2016-Jul-12 14:32S 33°59' E 018°17'  

Dump ship's entire track history